Kinnelon, New Jersey
Current Conditions -  °F | °C
As of 12:53 PM on Saturday 20 Dec 2014 (Local Time) from KCDW Reporting Station
Overcast Overcast  
Wind Chill: -4°   Ceiling: 2600
Heat Index: -1°   Visibility: 10mi
Dew Point: -7°   Wind: 6mph
Humidity: 64%   Direction: 30°NNE
Pressure: 30.27"   Gusts: NA
Location:  40.9863°N, 74.383°W
Report Text: KCDW 201753Z AUTO 03005KT 10SM OVC026 M01/M07 A3027 RMK AO2 SLP256 T10061067 11006 21011 58018 TSNO
Loading
Personal Weather Stations






























Interactive Weather Map New forecast layout! Learn more

10-Day Weather Forecast

Advertisements
Track Severe Weather on mobile